createdAt,value
2023-01-18T00:33:42.101Z,4.38
2023-01-18T00:36:11.426Z,2.53
2023-01-18T00:38:38.037Z,5.53
2023-01-18T00:41:04.807Z,3.50
2023-01-18T00:43:40.610Z,4.97
2023-01-18T00:46:15.047Z,2.97
2023-01-18T00:48:42.236Z,3.45
2023-01-18T00:51:09.982Z,3.20
2023-01-18T00:53:38.174Z,4.35
2023-01-18T00:56:08.836Z,2.78
2023-01-18T00:58:37.479Z,4.50
2023-01-18T01:01:05.237Z,2.90
2023-01-18T01:03:54.660Z,3.97
2023-01-18T01:06:43.100Z,3.95
2023-01-18T01:09:10.664Z,2.40
2023-01-18T01:11:37.251Z,4.45
2023-01-18T01:14:22.580Z,3.33
2023-01-18T01:17:07.899Z,3.33
2023-01-18T01:19:53.210Z,4.13
2023-01-18T01:22:38.606Z,3.13
2023-01-18T01:25:24.029Z,6.13
2023-01-18T01:27:51.907Z,4.30
2023-01-18T01:32:44.932Z,2.10
2023-01-18T01:35:11.741Z,2.60
2023-01-18T01:37:38.417Z,4.07
2023-01-18T01:40:05.331Z,2.53
2023-01-18T01:42:32.007Z,3.05
2023-01-18T01:44:58.629Z,3.88
2023-01-18T01:47:28.046Z,2.97
2023-01-18T01:49:58.498Z,2.30
2023-01-18T01:52:28.118Z,3.47
2023-01-18T01:54:54.705Z,7.65
2023-01-18T01:57:24.872Z,3.83
2023-01-18T02:00:02.140Z,5.65
2023-01-18T02:02:38.968Z,3.80
2023-01-18T02:05:06.858Z,2.97
2023-01-18T02:10:00.604Z,3.22
2023-01-18T02:12:28.148Z,2.72
2023-01-18T02:14:55.023Z,1.23
2023-01-18T02:17:35.252Z,1.33
2023-01-18T02:20:21.902Z,0.95
2023-01-18T02:22:55.014Z,1.50
2023-01-18T02:25:33.842Z,2.22
2023-01-18T02:28:06.230Z,2.53
2023-01-18T02:30:36.378Z,4.20
2023-01-18T02:33:13.526Z,2.13
2023-01-18T02:35:51.233Z,1.05
2023-01-18T02:38:21.029Z,2.10
2023-01-18T02:40:47.607Z,1.95
2023-01-18T02:43:35.144Z,2.35
2023-01-18T02:46:21.471Z,2.83
2023-01-18T02:48:48.849Z,2.97
2023-01-18T02:51:15.567Z,1.05
2023-01-18T02:53:43.460Z,2.47
2023-01-18T02:58:41.363Z,2.45
2023-01-18T03:01:12.219Z,2.17
2023-01-18T03:03:41.060Z,2.25
2023-01-18T03:06:08.552Z,1.55
2023-01-18T03:08:41.266Z,2.33
2023-01-18T03:11:12.203Z,1.95
2023-01-18T03:13:48.218Z,4.53
2023-01-18T03:16:18.593Z,2.58
2023-01-18T03:19:01.254Z,1.70
2023-01-18T03:21:45.516Z,0.85
2023-01-18T03:24:12.280Z,1.60
2023-01-18T03:26:41.894Z,2.25
2023-01-18T03:29:28.136Z,2.35
2023-01-18T03:32:20.130Z,2.63
2023-01-18T03:34:58.075Z,1.73
2023-01-18T03:37:30.388Z,2.15
2023-01-18T03:39:58.556Z,2.15
2023-01-18T03:42:27.732Z,0.88
2023-01-18T03:44:57.348Z,1.90
2023-01-18T03:47:24.423Z,1.42
2023-01-18T03:49:51.062Z,0.98
2023-01-18T03:52:19.982Z,2.20
2023-01-18T03:54:51.128Z,2.25
2023-01-18T03:57:29.824Z,3.58
2023-01-18T03:59:56.964Z,2.50
2023-01-18T04:02:24.305Z,1.52
2023-01-18T04:04:57.424Z,2.10
2023-01-18T04:07:25.564Z,2.28
2023-01-18T04:09:52.365Z,2.35
2023-01-18T04:12:19.047Z,2.47
2023-01-18T04:14:45.676Z,2.15
2023-01-18T04:17:12.342Z,2.80
2023-01-18T04:19:40.653Z,2.13
2023-01-18T04:22:09.772Z,3.53
2023-01-18T04:24:36.519Z,1.95
2023-01-18T04:27:03.426Z,2.53
2023-01-18T04:29:30.087Z,2.42
2023-01-18T04:31:56.706Z,1.67
2023-01-18T04:34:23.963Z,2.15
2023-01-18T04:36:50.984Z,2.45
2023-01-18T04:39:17.677Z,2.10
2023-01-18T04:41:44.853Z,2.20
2023-01-18T04:44:11.810Z,0.50
2023-01-18T04:46:38.638Z,2.92
2023-01-18T04:49:06.000Z,2.08
2023-01-18T04:51:32.973Z,2.35
2023-01-18T04:53:59.927Z,2.15
2023-01-18T04:56:26.618Z,2.30
2023-01-18T04:58:54.137Z,2.20
2023-01-18T05:01:21.651Z,1.92
2023-01-18T05:03:48.656Z,1.52
2023-01-18T05:06:16.079Z,2.53
2023-01-18T05:08:43.115Z,3.67
2023-01-18T05:11:10.896Z,0.93
2023-01-18T05:16:06.182Z,2.42
2023-01-18T05:18:32.969Z,3.97
2023-01-18T05:20:59.645Z,3.22
2023-01-18T05:23:26.197Z,5.15
2023-01-18T05:25:53.937Z,0.60
2023-01-18T05:28:20.830Z,1.42
2023-01-18T05:30:49.388Z,1.38
2023-01-18T05:33:19.508Z,1.95
2023-01-18T05:35:48.826Z,0.80
2023-01-18T05:38:15.522Z,2.42
2023-01-18T05:40:43.064Z,2.00
2023-01-18T05:43:09.703Z,1.08
2023-01-18T05:45:36.300Z,2.80
2023-01-18T05:48:04.093Z,1.23
2023-01-18T05:52:58.814Z,1.33
2023-01-18T05:55:26.074Z,2.80
2023-01-18T05:57:52.676Z,1.55
2023-01-18T06:00:19.492Z,1.90
2023-01-18T06:02:46.157Z,2.60
2023-01-18T06:05:12.829Z,2.33
2023-01-18T06:07:39.394Z,2.63
2023-01-18T06:10:06.019Z,1.55
2023-01-18T06:12:32.550Z,1.50
2023-01-18T06:14:59.469Z,1.33
2023-01-18T06:17:26.285Z,1.98
2023-01-18T06:19:52.848Z,2.75
2023-01-18T06:22:19.688Z,2.83
2023-01-18T06:24:46.297Z,2.00
2023-01-18T06:27:12.841Z,2.58
2023-01-18T06:29:39.457Z,2.63
2023-01-18T06:32:06.021Z,1.00
2023-01-18T06:34:33.263Z,2.17
2023-01-18T06:36:59.970Z,2.00
2023-01-18T06:39:26.505Z,3.38
2023-01-18T06:41:53.048Z,2.47
2023-01-18T06:44:19.606Z,2.17
2023-01-18T06:46:46.347Z,0.82
2023-01-18T06:49:13.805Z,3.20
2023-01-18T06:51:40.897Z,1.15
2023-01-18T06:54:08.603Z,2.88
2023-01-18T06:56:35.293Z,0.70
2023-01-18T06:59:01.868Z,0.47
2023-01-18T07:01:28.613Z,0.65
2023-01-18T07:03:55.340Z,0.90
2023-01-18T07:06:21.891Z,1.38
2023-01-18T07:08:48.990Z,1.88
2023-01-18T07:11:15.648Z,3.17
2023-01-18T07:13:43.839Z,2.53
2023-01-18T07:16:13.421Z,2.65
2023-01-18T07:18:44.075Z,0.70
2023-01-18T07:21:11.033Z,1.70
2023-01-18T07:23:38.821Z,2.22
2023-01-18T07:26:06.689Z,2.03
2023-01-18T07:28:33.870Z,0.45
2023-01-18T07:31:00.836Z,0.60
2023-01-18T07:33:28.166Z,0.95
2023-01-18T07:35:55.861Z,0.32
2023-01-18T07:38:22.987Z,1.15
2023-01-18T07:40:49.688Z,0.63
2023-01-18T07:43:16.790Z,0.30
2023-01-18T07:45:44.443Z,0.60
2023-01-18T07:48:11.098Z,2.45
2023-01-18T07:50:37.661Z,0.65
2023-01-18T07:53:08.647Z,0.60
2023-01-18T07:55:35.703Z,1.05
2023-01-18T07:58:02.249Z,0.77
2023-01-18T08:00:28.950Z,2.05
2023-01-18T08:02:57.622Z,0.47
2023-01-18T08:05:27.733Z,1.92
2023-01-18T08:07:54.248Z,0.63
2023-01-18T08:10:21.270Z,0.57
2023-01-18T08:12:47.974Z,0.80
2023-01-18T08:15:14.807Z,0.43
2023-01-18T08:17:42.419Z,1.25
2023-01-18T08:20:09.980Z,1.02
2023-01-18T08:22:36.669Z,1.35
2023-01-18T08:25:04.404Z,3.60
2023-01-18T08:27:30.937Z,3.55
2023-01-18T08:29:57.517Z,5.32
2023-01-18T08:32:24.453Z,0.75
2023-01-18T08:34:51.556Z,3.03
2023-01-18T08:37:18.114Z,1.58
2023-01-18T08:39:44.805Z,2.10
2023-01-18T08:42:11.977Z,6.57
2023-01-18T08:44:38.655Z,6.70
2023-01-18T08:47:05.222Z,5.40
2023-01-18T08:49:32.753Z,7.20
2023-01-18T08:51:59.320Z,2.97
2023-01-18T08:54:26.118Z,4.78
2023-01-18T08:56:52.727Z,3.45
2023-01-18T08:59:20.104Z,7.28
2023-01-18T09:01:46.770Z,5.65
2023-01-18T09:04:13.883Z,7.05
2023-01-18T09:06:40.522Z,2.45
2023-01-18T09:09:07.358Z,8.57
2023-01-18T09:11:33.985Z,2.15
2023-01-18T09:14:02.160Z,4.07
2023-01-18T09:16:30.048Z,9.85
2023-01-18T09:18:57.585Z,2.90
2023-01-18T09:21:24.630Z,3.30
2023-01-18T09:23:51.324Z,2.22
2023-01-18T09:26:20.291Z,6.30
2023-01-18T09:28:53.153Z,3.13
2023-01-18T09:31:20.992Z,4.22
2023-01-18T09:36:23.887Z,3.45
2023-01-18T09:38:51.180Z,2.42
2023-01-18T09:41:29.838Z,2.00
2023-01-18T09:43:58.479Z,1.40
2023-01-18T09:46:25.583Z,2.50
2023-01-18T09:48:55.313Z,2.55
2023-01-18T09:51:23.825Z,2.92
2023-01-18T09:54:02.469Z,2.67
2023-01-18T09:56:32.275Z,2.17
2023-01-18T09:59:13.893Z,2.65
2023-01-18T10:01:41.207Z,1.10
2023-01-18T10:04:37.133Z,2.38
2023-01-18T10:07:06.724Z,0.77
2023-01-18T10:09:39.432Z,2.20
2023-01-18T10:12:28.693Z,2.50
2023-01-18T10:14:58.507Z,3.33
2023-01-18T10:17:28.986Z,3.08
2023-01-18T10:19:55.593Z,1.95
2023-01-18T10:22:25.186Z,4.10
2023-01-18T10:24:55.645Z,2.80
2023-01-18T10:27:40.838Z,2.08
2023-01-18T10:30:14.259Z,2.55
2023-01-18T10:32:44.129Z,7.35
2023-01-18T10:35:17.437Z,1.27
2023-01-18T10:37:47.598Z,5.35
2023-01-18T10:40:15.098Z,3.42
2023-01-18T10:42:46.332Z,2.10
2023-01-18T10:45:17.522Z,3.00
2023-01-18T10:47:44.512Z,4.28
2023-01-18T10:50:15.823Z,6.55
2023-01-18T10:52:42.487Z,1.83
2023-01-18T10:55:16.741Z,2.22
2023-01-18T10:57:47.867Z,2.75
2023-01-18T11:00:34.809Z,3.25
2023-01-18T11:03:02.979Z,1.85
2023-01-18T11:05:33.892Z,2.15
2023-01-18T11:08:32.972Z,2.28
2023-01-18T11:19:22.543Z,7.68
2023-01-18T11:21:51.972Z,9.38
2023-01-18T11:24:24.880Z,3.58
2023-01-18T11:27:10.066Z,4.78
2023-01-18T11:29:41.745Z,5.70
2023-01-18T11:32:15.317Z,4.15
2023-01-18T11:34:46.517Z,4.28
2023-01-18T11:37:31.845Z,3.03
2023-01-18T11:39:58.425Z,5.40
2023-01-18T11:42:25.072Z,7.97
2023-01-18T11:44:51.789Z,3.67
2023-01-18T11:47:25.340Z,7.10
2023-01-18T11:49:57.981Z,9.40
2023-01-18T11:52:27.818Z,6.90
2023-01-18T11:54:58.147Z,6.18
2023-01-18T11:57:28.155Z,3.00
2023-01-18T11:59:54.991Z,4.60
2023-01-18T12:02:40.291Z,3.88
2023-01-18T12:05:12.935Z,4.40
2023-01-18T12:07:47.836Z,6.93
2023-01-18T12:10:22.112Z,5.20
2023-01-18T12:15:21.161Z,7.35
2023-01-18T12:18:18.379Z,8.25
2023-01-18T12:21:05.566Z,3.95
2023-01-18T12:23:41.010Z,7.78
2023-01-18T12:26:12.649Z,4.30
2023-01-18T12:28:51.524Z,5.72
2023-01-18T12:31:21.421Z,5.53
2023-01-18T12:34:21.203Z,8.57
2023-01-18T12:37:05.610Z,8.32
2023-01-18T12:39:35.344Z,6.25
2023-01-18T12:42:05.527Z,4.55
2023-01-18T12:44:32.103Z,4.80
2023-01-18T12:47:15.963Z,8.50
2023-01-18T12:49:45.145Z,8.52
2023-01-18T12:52:19.020Z,12.95
2023-01-18T12:54:47.987Z,4.88
2023-01-18T12:57:14.982Z,6.00
2023-01-18T12:59:53.676Z,5.38
2023-01-18T13:02:38.862Z,7.13
2023-01-18T13:05:24.739Z,8.57
2023-01-18T13:07:57.499Z,7.65
2023-01-18T13:10:28.561Z,12.10
2023-01-18T13:12:56.492Z,11.70
2023-01-18T13:15:32.032Z,7.65
2023-01-18T13:18:04.219Z,11.02
2023-01-18T13:20:53.539Z,11.18
2023-01-18T13:23:39.378Z,12.13
2023-01-18T13:26:18.371Z,4.72
2023-01-18T13:28:46.367Z,6.65
2023-01-18T13:31:13.410Z,9.98
2023-01-18T13:33:41.735Z,9.02
2023-01-18T13:36:08.437Z,7.68
2023-01-18T13:38:41.582Z,9.63
2023-01-18T13:41:13.178Z,8.35
2023-01-18T13:43:58.594Z,12.70
2023-01-18T13:46:25.817Z,6.72
2023-01-18T13:49:04.181Z,7.70
2023-01-18T13:51:37.165Z,5.75
2023-01-18T13:54:04.211Z,10.18
2023-01-18T13:56:31.175Z,8.43
2023-01-18T13:59:29.794Z,9.25
2023-01-18T14:02:06.275Z,6.72
2023-01-18T14:04:35.605Z,10.18
2023-01-18T14:07:03.839Z,5.40
2023-01-18T14:09:35.632Z,6.68
2023-01-18T14:12:02.645Z,8.35
2023-01-18T14:14:30.881Z,7.57
2023-01-18T14:16:57.522Z,11.32
2023-01-18T14:19:27.434Z,7.22
2023-01-18T14:22:06.195Z,8.52
2023-01-18T14:24:55.550Z,9.27
2023-01-18T14:27:24.479Z,6.88
2023-01-18T14:29:51.009Z,4.30
2023-01-18T14:32:23.164Z,6.20
2023-01-18T14:34:59.181Z,9.88
2023-01-18T14:37:34.301Z,4.93
2023-01-18T14:40:12.927Z,11.05
2023-01-18T14:42:46.175Z,10.82
2023-01-18T14:45:27.047Z,7.50
2023-01-18T14:47:54.812Z,11.60
2023-01-18T14:50:22.706Z,9.15
2023-01-18T14:52:50.516Z,7.05
2023-01-18T14:55:24.354Z,10.82
2023-01-18T14:57:51.556Z,11.98
2023-01-18T15:00:18.519Z,13.88
2023-01-18T15:02:46.329Z,7.90
2023-01-18T15:05:17.501Z,9.73
2023-01-18T15:07:45.943Z,10.77
2023-01-18T15:10:16.554Z,11.32
2023-01-18T15:12:46.268Z,15.73
2023-01-18T15:15:25.526Z,7.22
2023-01-18T15:17:52.700Z,10.32
2023-01-18T15:20:19.328Z,7.65
2023-01-18T15:22:46.841Z,9.43
2023-01-18T15:25:16.884Z,15.00
2023-01-18T15:27:47.629Z,12.10
2023-01-18T15:30:14.425Z,14.70
2023-01-18T15:32:41.069Z,9.68
2023-01-18T15:35:13.033Z,10.55
2023-01-18T15:37:39.771Z,14.52
2023-01-18T15:40:12.393Z,11.75
2023-01-18T15:42:46.129Z,12.55
2023-01-18T15:45:17.474Z,15.23
2023-01-18T15:47:48.116Z,13.30
2023-01-18T15:50:19.408Z,7.43
2023-01-18T15:52:47.155Z,14.52
2023-01-18T15:55:38.578Z,34.38
2023-01-18T15:58:09.068Z,23.40
2023-01-18T16:00:41.149Z,13.55
2023-01-18T16:03:28.732Z,10.55
2023-01-18T16:06:00.620Z,11.48
2023-01-18T16:08:27.695Z,10.55
2023-01-18T16:10:55.576Z,7.35
2023-01-18T16:13:34.366Z,8.27
2023-01-18T16:16:06.854Z,12.60
2023-01-18T16:18:33.596Z,12.85
2023-01-18T16:21:02.390Z,13.98
2023-01-18T16:23:29.407Z,16.98
2023-01-18T16:26:04.426Z,19.52
2023-01-18T16:28:31.081Z,13.05
2023-01-18T16:30:59.802Z,18.45
2023-01-18T16:33:26.467Z,18.65
2023-01-18T16:35:53.052Z,19.85
2023-01-18T16:38:24.106Z,29.65
2023-01-18T16:40:51.038Z,13.85
2023-01-18T16:43:26.344Z,13.43
2023-01-18T16:45:54.748Z,18.23
2023-01-18T16:48:25.759Z,13.07
2023-01-18T16:50:52.797Z,15.35
2023-01-18T16:53:19.584Z,15.27
2023-01-18T16:55:48.260Z,9.55
2023-01-18T16:58:15.733Z,20.02
2023-01-18T17:00:55.055Z,22.90
2023-01-18T17:03:21.784Z,20.13
2023-01-18T17:05:48.451Z,19.80
2023-01-18T17:08:15.475Z,18.98
2023-01-18T17:10:43.432Z,15.25
2023-01-18T17:13:10.610Z,13.73
2023-01-18T17:15:40.811Z,14.95
2023-01-18T17:18:08.455Z,12.68
2023-01-18T17:20:35.197Z,13.27
2023-01-18T17:23:02.167Z,14.07
2023-01-18T17:25:29.423Z,12.25
2023-01-18T17:27:56.214Z,11.82
2023-01-18T17:30:23.135Z,9.48
2023-01-18T17:32:50.138Z,16.33
2023-01-18T17:35:17.981Z,20.67
2023-01-18T17:37:44.612Z,14.65
2023-01-18T17:40:19.611Z,14.18
2023-01-18T17:42:49.659Z,23.40
2023-01-18T17:45:16.311Z,14.40
2023-01-18T17:47:43.289Z,14.02
2023-01-18T17:50:12.237Z,11.85
2023-01-18T17:52:39.800Z,12.75
2023-01-18T17:55:07.314Z,16.67
2023-01-18T17:57:34.179Z,21.13
2023-01-18T18:00:00.856Z,13.73
2023-01-18T18:02:27.570Z,17.55
2023-01-18T18:04:54.333Z,23.42
2023-01-18T18:07:20.889Z,14.68
2023-01-18T18:09:47.461Z,18.55
2023-01-18T18:12:14.041Z,17.05
2023-01-18T18:14:40.969Z,14.60
2023-01-18T18:17:07.657Z,18.60
2023-01-18T18:19:34.317Z,12.15
2023-01-18T18:22:01.059Z,20.20
2023-01-18T18:24:27.722Z,23.08
2023-01-18T18:26:54.302Z,19.50
2023-01-18T18:29:20.984Z,19.60
2023-01-18T18:31:47.679Z,22.02
2023-01-18T18:34:14.260Z,19.52
2023-01-18T18:36:40.946Z,23.02
2023-01-18T18:39:08.934Z,19.83
2023-01-18T18:41:35.814Z,23.00
2023-01-18T18:44:02.926Z,17.65
2023-01-18T18:46:29.790Z,18.60
2023-01-18T18:48:56.655Z,19.88
2023-01-18T18:51:23.867Z,16.42
2023-01-18T18:53:51.560Z,24.00
2023-01-18T18:56:18.275Z,24.65
2023-01-18T18:58:46.837Z,19.33
2023-01-18T19:01:23.672Z,24.67
2023-01-18T19:03:51.756Z,25.52
2023-01-18T19:06:18.896Z,20.38
2023-01-18T19:08:46.827Z,17.75
2023-01-18T19:11:13.509Z,19.35
2023-01-18T19:13:40.216Z,29.83
2023-01-18T19:16:07.239Z,14.15
2023-01-18T19:18:33.859Z,20.48
2023-01-18T19:21:00.565Z,29.48
2023-01-18T19:23:27.175Z,25.23
2023-01-18T19:25:53.881Z,23.98
2023-01-18T19:28:20.624Z,27.58
2023-01-18T19:30:47.577Z,22.90
2023-01-18T19:33:15.464Z,22.35
2023-01-18T19:35:43.443Z,22.60
2023-01-18T19:38:10.088Z,27.25
2023-01-18T19:40:36.754Z,23.33
2023-01-18T19:43:03.681Z,26.55
2023-01-18T19:45:30.925Z,27.90
2023-01-18T19:47:58.794Z,22.80
2023-01-18T19:50:26.304Z,22.98
2023-01-18T19:52:52.958Z,23.92
2023-01-18T19:55:21.032Z,21.30
2023-01-18T19:57:47.947Z,19.65
2023-01-18T20:00:16.630Z,28.80
2023-01-18T20:02:43.846Z,29.27
2023-01-18T20:05:10.742Z,20.73
2023-01-18T20:07:37.922Z,22.48
2023-01-18T20:10:05.421Z,22.13
2023-01-18T20:12:32.472Z,20.95
2023-01-18T20:14:59.063Z,26.15
2023-01-18T20:17:26.271Z,24.38
2023-01-18T20:19:54.206Z,22.80
2023-01-18T20:22:21.251Z,33.28
2023-01-18T20:24:47.891Z,25.90
2023-01-18T20:27:16.638Z,27.48
2023-01-18T20:29:43.719Z,26.75
2023-01-18T20:32:16.625Z,21.63
2023-01-18T20:34:47.163Z,27.50
2023-01-18T20:37:14.514Z,26.00
2023-01-18T20:39:41.122Z,26.67
2023-01-18T20:42:07.850Z,26.48
2023-01-18T20:44:34.533Z,23.02
2023-01-18T20:47:01.359Z,24.42
2023-01-18T20:49:39.466Z,19.73
2023-01-18T20:52:07.101Z,27.75
2023-01-18T20:54:35.755Z,22.05
2023-01-18T20:57:02.970Z,23.73
2023-01-18T20:59:29.490Z,30.85
2023-01-18T21:01:56.287Z,29.27
2023-01-18T21:04:22.939Z,27.48
2023-01-18T21:06:50.015Z,17.95
2023-01-18T21:09:17.029Z,48.97
2023-01-18T21:11:43.814Z,26.52
2023-01-18T21:14:10.464Z,30.63
2023-01-18T21:16:37.260Z,38.22
2023-01-18T21:19:04.544Z,15.20
2023-01-18T21:21:32.010Z,36.63
2023-01-18T21:23:59.214Z,38.88
2023-01-18T21:26:26.288Z,32.53
2023-01-18T21:28:53.060Z,36.15
2023-01-18T21:31:19.671Z,34.40
2023-01-18T21:33:46.431Z,32.25
2023-01-18T21:36:14.012Z,20.75
2023-01-18T21:38:40.795Z,35.70
2023-01-18T21:41:26.078Z,26.80
2023-01-18T21:44:12.627Z,26.48
2023-01-18T21:49:06.862Z,23.25
2023-01-18T21:51:53.308Z,36.00
2023-01-18T21:54:22.158Z,27.88
2023-01-18T21:56:48.884Z,28.85
2023-01-18T21:59:15.387Z,31.67
2023-01-18T22:01:43.459Z,26.80
2023-01-18T22:04:29.799Z,32.10
2023-01-18T22:06:59.219Z,25.88
2023-01-18T22:09:27.191Z,27.30
2023-01-18T22:11:56.026Z,23.67
2023-01-18T22:14:23.219Z,26.25
2023-01-18T22:16:49.904Z,23.77
2023-01-18T22:19:16.550Z,17.85
2023-01-18T22:21:47.119Z,19.52
2023-01-18T22:24:14.156Z,35.50
2023-01-18T22:30:26.187Z,34.03
2023-01-18T22:40:19.691Z,29.20
2023-01-18T22:42:46.837Z,21.58
2023-01-18T22:45:13.462Z,28.73
2023-01-18T22:47:40.052Z,36.10
2023-01-18T22:50:06.856Z,20.42
2023-01-18T22:52:33.387Z,17.50
2023-01-18T22:55:00.141Z,8.90
2023-01-18T22:57:26.980Z,24.52
2023-01-18T22:59:53.589Z,27.35
2023-01-18T23:02:20.197Z,17.95
2023-01-18T23:04:48.500Z,18.38
2023-01-18T23:09:43.072Z,18.77
2023-01-18T23:12:11.663Z,22.77
2023-01-18T23:14:57.455Z,19.55
2023-01-18T23:17:38.942Z,18.73
2023-01-18T23:20:10.492Z,12.80
2023-01-18T23:22:37.265Z,19.85
2023-01-18T23:25:04.348Z,16.85
2023-01-18T23:27:31.090Z,19.73
2023-01-18T23:29:58.777Z,8.02
2023-01-18T23:32:30.688Z,15.13
2023-01-18T23:34:58.154Z,20.10
2023-01-18T23:37:24.928Z,19.45
2023-01-18T23:40:10.000Z,21.15
2023-01-18T23:42:55.586Z,29.42
2023-01-18T23:45:40.841Z,22.13
2023-01-18T23:48:27.117Z,29.15
2023-01-18T23:51:12.603Z,23.35
2023-01-18T23:53:57.788Z,18.83
2023-01-18T23:56:24.377Z,15.02
2023-01-18T23:58:50.923Z,19.13
